Time;durP1;ratioP1;P1;durP2;ratioP2;P2;SDS_P1;SDS_P2;PMS_P1;PMS_P2;Temp;Humidity;BMP_temperature;BMP_pressure;BME280_temperature;BME280_humidity;BME280_pressure;Samples;Min_cycle;Max_cycle;Signal;HPM_P1;HPM_P2
2023/08/08 00:02:18;;;;;;;4.10;1.20;;;12.70;54.90;;;;;;5035191;28;20037;-83
2023/08/08 00:04:44;;;;;;;4.80;1.42;;;12.70;44.80;;;;;;5037327;28;20030;-85
2023/08/08 00:07:10;;;;;;;1.98;1.00;;;12.80;38.90;;;;;;5033699;28;20033;-84
2023/08/08 00:09:37;;;;;;;3.35;1.65;;;12.80;26.30;;;;;;5037611;28;20379;-84
2023/08/08 00:12:03;;;;;;;2.28;0.88;;;12.80;2.60;;;;;;5038922;28;20033;-84
2023/08/08 00:14:30;;;;;;;3.40;1.15;;;12.70;1.00;;;;;;5035411;28;20033;-85
2023/08/08 00:16:56;;;;;;;3.35;1.15;;;12.70;3.20;;;;;;5037507;28;20482;-85
2023/08/08 00:19:22;;;;;;;1.45;1.10;;;12.80;14.70;;;;;;5037142;28;20034;-84
2023/08/08 00:21:49;;;;;;;1.40;0.70;;;12.90;8.90;;;;;;5037800;28;20466;-83
2023/08/08 00:24:15;;;;;;;2.55;0.80;;;12.90;1.00;;;;;;5037373;28;20044;-84
2023/08/08 00:26:41;;;;;;;2.55;1.55;;;12.90;1.00;;;;;;5034673;28;20042;-84
2023/08/08 00:29:07;;;;;;;1.95;1.08;;;12.80;1.00;;;;;;5035178;28;20036;-84
2023/08/08 00:31:33;;;;;;;2.35;0.85;;;12.80;1.00;;;;;;5054407;28;20458;-83
2023/08/08 00:33:59;;;;;;;1.95;0.80;;;12.80;1.00;;;;;;5035625;28;20034;-83
2023/08/08 00:36:26;;;;;;;3.10;1.00;;;12.70;1.00;;;;;;5050502;28;20045;-83
2023/08/08 00:38:52;;;;;;;3.25;1.10;;;12.70;3.30;;;;;;5035274;28;20045;-84
2023/08/08 00:41:18;;;;;;;3.72;1.42;;;12.60;5.60;;;;;;5037539;28;20463;-83
2023/08/08 00:43:44;;;;;;;2.97;1.15;;;12.60;14.30;;;;;;5036775;28;20389;-84
2023/08/08 00:46:13;;;;;;;2.40;0.93;;;12.60;18.50;;;;;;5034092;28;20036;-84
2023/08/08 00:48:40;;;;;;;2.05;1.10;;;12.50;19.90;;;;;;5035201;28;20471;-85
2023/08/08 00:51:06;;;;;;;3.53;1.70;;;12.30;31.00;;;;;;5039285;28;20029;-84
2023/08/08 00:53:32;;;;;;;2.72;1.17;;;12.30;46.90;;;;;;5035542;28;20040;-84
2023/08/08 00:56:00;;;;;;;3.40;1.17;;;12.30;57.00;;;;;;5033304;28;20064;-84
2023/08/08 00:58:26;;;;;;;1.92;0.77;;;12.20;63.10;;;;;;5047820;28;20036;-83
2023/08/08 01:00:56;;;;;;;3.15;1.15;;;12.20;71.60;;;;;;5033462;28;20046;-84
2023/08/08 01:03:22;;;;;;;3.13;1.35;;;12.20;70.60;;;;;;5034457;28;20037;-84
2023/08/08 01:06:06;;;;;;;2.50;1.23;;;12.10;79.30;;;;;;5036845;28;20394;-84
2023/08/08 01:08:46;;;;;;;3.47;1.35;;;12.10;88.80;;;;;;5037459;28;20056;-84
2023/08/08 01:11:14;;;;;;;;;;;12.20;98.80;;;;;;5047067;28;20504;-84
2023/08/08 01:13:42;;;;;;;2.13;1.20;;;12.20;93.00;;;;;;5050942;28;19912;-84
2023/08/08 01:16:10;;;;;;;2.25;1.08;;;12.20;86.00;;;;;;5046668;28;20373;-84
2023/08/08 01:18:38;;;;;;;2.85;1.27;;;12.10;83.60;;;;;;5036702;28;20038;-83
2023/08/08 01:21:05;;;;;;;3.45;1.33;;;12.10;82.80;;;;;;5040039;28;20018;-84
2023/08/08 01:23:49;;;;;;;3.88;1.90;;;12.10;88.00;;;;;;5036902;28;20056;-84
2023/08/08 01:26:16;;;;;;;7.53;1.45;;;12.00;92.40;;;;;;5038967;28;20049;-84
2023/08/08 01:28:43;;;;;;;5.10;1.17;;;12.00;94.20;;;;;;5037459;28;20438;-84
2023/08/08 01:31:09;;;;;;;3.40;1.50;;;11.90;99.00;;;;;;5044355;28;20359;-84
2023/08/08 01:33:36;;;;;;;2.45;1.23;;;11.80;99.90;;;;;;5055199;28;20052;-83
2023/08/08 01:36:29;;;;;;;1.42;0.90;;;11.80;99.90;;;;;;5042618;28;20041;-83
2023/08/08 01:39:05;;;;;;;1.75;1.50;;;11.80;99.90;;;;;;5034539;28;20044;-84
2023/08/08 01:41:38;;;;;;;2.13;1.02;;;11.90;99.90;;;;;;5036514;28;20037;-84
2023/08/08 01:44:05;;;;;;;3.80;1.02;;;11.80;99.90;;;;;;5037177;28;20035;-82
2023/08/08 01:46:32;;;;;;;3.42;1.55;;;11.80;99.90;;;;;;5036180;28;20489;-85
2023/08/08 01:48:59;;;;;;;3.90;1.38;;;11.80;99.90;;;;;;5038715;28;20052;-83
2023/08/08 01:51:26;;;;;;;2.92;1.33;;;11.70;99.90;;;;;;5052062;28;20048;-84
2023/08/08 01:53:53;;;;;;;3.55;1.63;;;11.70;99.90;;;;;;5033686;28;20037;-85
2023/08/08 01:56:19;;;;;;;2.50;1.08;;;11.70;99.90;;;;;;5033976;28;20050;-85
2023/08/08 01:58:45;;;;;;;8.60;1.63;;;11.60;99.90;;;;;;5030282;28;20258;-83
2023/08/08 02:01:11;;;;;;;3.30;1.33;;;11.60;99.90;;;;;;5028629;28;20064;-84
2023/08/08 02:03:37;;;;;;;2.38;1.77;;;11.60;99.90;;;;;;5035675;28;20042;-84
2023/08/08 02:06:04;;;;;;;2.55;1.40;;;11.60;99.90;;;;;;5032755;28;20053;-83
2023/08/08 02:08:30;;;;;;;2.70;1.20;;;11.60;99.90;;;;;;5035389;28;20056;-84
2023/08/08 02:10:56;;;;;;;2.25;0.95;;;11.60;99.90;;;;;;5032637;28;20036;-83
2023/08/08 02:13:22;;;;;;;4.25;1.55;;;11.70;99.90;;;;;;5037499;28;20481;-84
2023/08/08 02:15:49;;;;;;;2.58;1.10;;;11.70;99.90;;;;;;5035646;28;20041;-84
2023/08/08 02:18:15;;;;;;;2.65;1.50;;;11.70;99.90;;;;;;5049562;28;20045;-85
2023/08/08 02:20:41;;;;;;;4.00;1.45;;;11.70;99.90;;;;;;5046629;28;20038;-85
2023/08/08 02:23:07;;;;;;;6.28;2.13;;;11.70;99.90;;;;;;5050624;28;20068;-83
2023/08/08 02:25:33;;;;;;;4.88;1.80;;;11.70;99.90;;;;;;5034783;28;20061;-82
2023/08/08 02:27:59;;;;;;;4.88;1.85;;;11.70;99.90;;;;;;5035725;28;20029;-84
2023/08/08 02:30:26;;;;;;;5.05;1.63;;;11.70;99.90;;;;;;5048616;28;20399;-83
2023/08/08 02:32:52;;;;;;;3.53;1.35;;;11.70;99.90;;;;;;5036416;28;20487;-84
2023/08/08 02:35:18;;;;;;;2.63;1.15;;;11.50;99.90;;;;;;5029957;28;20033;-84
2023/08/08 02:37:44;;;;;;;2.03;1.17;;;11.40;99.90;;;;;;5038527;28;20029;-84
2023/08/08 02:40:11;;;;;;;2.45;1.38;;;11.40;99.90;;;;;;5034566;28;20096;-83
2023/08/08 02:42:37;;;;;;;2.08;0.93;;;11.30;99.90;;;;;;5036956;28;20471;-84
2023/08/08 02:45:03;;;;;;;2.28;1.35;;;11.40;99.90;;;;;;5032770;28;20352;-84
2023/08/08 02:47:30;;;;;;;2.55;1.20;;;11.30;99.90;;;;;;5050614;28;20038;-79
2023/08/08 02:49:56;;;;;;;3.63;1.55;;;11.40;99.90;;;;;;5056615;28;20048;-84
2023/08/08 02:52:23;;;;;;;5.88;1.67;;;11.50;99.90;;;;;;5037321;28;20038;-83
2023/08/08 02:54:49;;;;;;;2.95;1.17;;;11.40;99.90;;;;;;5040417;28;20156;-84
2023/08/08 02:57:16;;;;;;;5.25;1.73;;;11.40;99.90;;;;;;5033290;28;20045;-85
2023/08/08 02:59:43;;;;;;;5.03;2.20;;;11.40;99.90;;;;;;5054640;28;20045;-84
2023/08/08 03:02:09;;;;;;;3.72;1.80;;;11.50;99.90;;;;;;5036978;28;20408;-84
2023/08/08 03:04:38;;;;;;;3.42;1.40;;;11.40;99.90;;;;;;5049553;28;20042;-84
2023/08/08 03:07:06;;;;;;;4.25;2.45;;;11.30;99.90;;;;;;5056006;28;20044;-83
2023/08/08 03:09:35;;;;;;;2.88;1.38;;;11.20;99.90;;;;;;5033679;28;20045;-83
2023/08/08 03:12:01;;;;;;;4.30;1.60;;;11.20;99.90;;;;;;5055350;28;20041;-84
2023/08/08 03:14:30;;;;;;;4.95;2.03;;;11.10;99.90;;;;;;5035788;28;20345;-80
2023/08/08 03:16:58;;;;;;;2.53;1.80;;;11.10;99.90;;;;;;5037279;28;20033;-85
2023/08/08 03:19:25;;;;;;;4.28;2.58;;;11.00;99.90;;;;;;5030100;28;20049;-84
2023/08/08 03:21:52;;;;;;;3.40;2.15;;;11.00;99.90;;;;;;5032963;28;20285;-84
2023/08/08 03:24:18;;;;;;;3.53;2.03;;;11.00;99.90;;;;;;5052703;28;20056;-85
2023/08/08 03:26:44;;;;;;;5.47;3.05;;;11.00;99.90;;;;;;5040909;28;20067;-84
2023/08/08 03:29:12;;;;;;;5.18;3.03;;;11.00;99.90;;;;;;5042905;28;20041;-83
2023/08/08 03:31:43;;;;;;;10.15;2.25;;;11.00;99.90;;;;;;5049790;28;20041;-82
2023/08/08 03:34:09;;;;;;;3.78;2.05;;;11.00;99.90;;;;;;5040748;28;20040;-84
2023/08/08 03:36:36;;;;;;;3.60;2.00;;;11.00;99.90;;;;;;5034637;28;20056;-84
2023/08/08 03:39:03;;;;;;;7.15;2.55;;;10.90;99.90;;;;;;5063035;28;20045;-80
2023/08/08 03:41:29;;;;;;;4.72;2.05;;;10.90;99.90;;;;;;5035936;28;20048;-83
2023/08/08 03:43:56;;;;;;;3.92;2.03;;;10.90;99.90;;;;;;5038351;28;20037;-83
2023/08/08 03:46:24;;;;;;;5.90;2.10;;;10.90;99.90;;;;;;5032376;28;20406;-84
2023/08/08 03:48:50;;;;;;;7.13;3.20;;;10.90;99.90;;;;;;5052190;28;20037;-88
2023/08/08 03:51:16;;;;;;;4.45;2.05;;;10.80;99.90;;;;;;5037777;28;20030;-87
2023/08/08 03:53:43;;;;;;;5.22;2.40;;;10.80;99.90;;;;;;5038303;28;20033;-86
2023/08/08 03:56:09;;;;;;;4.65;1.95;;;10.80;99.90;;;;;;5035117;28;20049;-86
2023/08/08 03:58:37;;;;;;;6.10;2.53;;;10.70;99.90;;;;;;5054045;28;20053;-87
2023/08/08 04:01:04;;;;;;;7.53;2.30;;;10.70;99.90;;;;;;5048865;28;20051;-80
2023/08/08 04:03:31;;;;;;;2.97;1.85;;;10.70;99.90;;;;;;5048784;28;20049;-82
2023/08/08 04:05:57;;;;;;;3.25;1.90;;;10.70;99.90;;;;;;5032959;28;20394;-82
2023/08/08 04:08:24;;;;;;;4.05;2.10;;;10.70;99.90;;;;;;5041234;28;20463;-82
2023/08/08 04:10:50;;;;;;;4.95;1.85;;;10.70;99.90;;;;;;5032047;28;20045;-82
2023/08/08 04:13:16;;;;;;;5.70;2.47;;;10.70;99.90;;;;;;5035546;28;20044;-82
2023/08/08 04:15:42;;;;;;;3.75;1.80;;;10.80;99.90;;;;;;5037175;28;20041;-81
2023/08/08 04:18:08;;;;;;;3.60;2.45;;;10.90;99.90;;;;;;5036211;28;20483;-82
2023/08/08 04:20:34;;;;;;;4.70;1.90;;;11.00;99.90;;;;;;5037612;28;20029;-84
2023/08/08 04:23:01;;;;;;;4.50;1.80;;;11.10;99.90;;;;;;5037830;28;20025;-81
2023/08/08 04:25:28;;;;;;;4.63;1.88;;;11.00;99.90;;;;;;5038897;28;20037;-81
2023/08/08 04:27:54;;;;;;;5.18;1.95;;;10.90;99.90;;;;;;5031958;28;20038;-82
2023/08/08 04:30:20;;;;;;;4.13;1.75;;;10.90;99.90;;;;;;5052522;28;20038;-82
2023/08/08 04:32:46;;;;;;;4.43;2.28;;;10.90;99.90;;;;;;5036422;28;20029;-83
2023/08/08 04:35:12;;;;;;;3.92;2.00;;;10.90;99.90;;;;;;5035269;28;20040;-81
2023/08/08 04:37:39;;;;;;;3.97;1.92;;;11.00;99.90;;;;;;5038151;28;20034;-81
2023/08/08 04:40:08;;;;;;;3.30;1.63;;;11.00;99.90;;;;;;5036907;28;20390;-82
2023/08/08 04:42:34;;;;;;;4.50;2.60;;;11.00;99.90;;;;;;5033869;28;20021;-81
2023/08/08 04:45:00;;;;;;;6.82;2.38;;;11.00;99.90;;;;;;5035458;28;20089;-82
2023/08/08 04:47:26;;;;;;;5.68;2.28;;;11.10;99.90;;;;;;5034366;28;20040;-81
2023/08/08 04:49:53;;;;;;;4.25;2.42;;;11.10;99.90;;;;;;5036328;28;20056;-81
2023/08/08 04:52:19;;;;;;;5.22;2.42;;;11.20;99.90;;;;;;5051448;28;20033;-81
2023/08/08 04:54:45;;;;;;;7.05;2.80;;;11.30;99.90;;;;;;5038304;28;20033;-81
2023/08/08 04:57:11;;;;;;;4.00;1.67;;;11.50;99.90;;;;;;5030628;28;20037;-81
2023/08/08 04:59:37;;;;;;;3.53;1.73;;;11.60;99.90;;;;;;5033120;28;20384;-81
2023/08/08 05:02:03;;;;;;;2.70;1.30;;;11.80;99.90;;;;;;5040032;28;20385;-81
2023/08/08 05:04:30;;;;;;;3.53;1.88;;;12.10;99.90;;;;;;5042659;28;20108;-82
2023/08/08 05:06:57;;;;;;;4.05;1.70;;;12.40;99.90;;;;;;5050201;28;20048;-80
2023/08/08 05:09:26;;;;;;;2.55;1.40;;;12.90;99.90;;;;;;5033233;28;20045;-81
2023/08/08 05:11:53;;;;;;;5.13;1.67;;;13.50;99.90;;;;;;5035600;28;20036;-82
2023/08/08 05:14:19;;;;;;;10.50;2.45;;;13.90;90.60;;;;;;5034615;28;20033;-82
2023/08/08 05:16:46;;;;;;;5.40;1.90;;;14.40;6.20;;;;;;5036183;28;20041;-81
2023/08/08 05:19:12;;;;;;;4.10;1.48;;;14.60;1.00;;;;;;5033457;28;20037;-82
2023/08/08 05:21:38;;;;;;;7.88;1.63;;;14.80;1.00;;;;;;5036247;28;20029;-82
2023/08/08 05:24:04;;;;;;;3.80;1.38;;;14.90;1.00;;;;;;5036441;28;20033;-82
2023/08/08 05:26:30;;;;;;;4.00;1.65;;;15.10;1.00;;;;;;5039702;28;20048;-82
2023/08/08 05:28:57;;;;;;;2.60;1.23;;;15.50;1.00;;;;;;5035970;28;20252;-82
2023/08/08 05:31:23;;;;;;;5.85;1.85;;;15.60;1.00;;;;;;5035039;28;20386;-83
2023/08/08 05:33:49;;;;;;;2.67;1.33;;;15.90;99.90;;;;;;5032764;28;20382;-83
2023/08/08 05:36:15;;;;;;;3.00;1.77;;;15.80;99.90;;;;;;5033533;28;20052;-82
2023/08/08 05:38:41;;;;;;;4.03;1.55;;;15.80;99.90;;;;;;5033327;28;20029;-83
2023/08/08 05:41:13;;;;;;;3.00;1.38;;;15.60;99.90;;;;;;5034565;28;20803;-82
2023/08/08 05:43:39;;;;;;;6.82;1.48;;;15.60;99.90;;;;;;5033072;28;20490;-81
2023/08/08 05:46:05;;;;;;;4.65;1.30;;;15.70;99.90;;;;;;5031242;28;20029;-83
2023/08/08 05:48:32;;;;;;;2.80;1.02;;;15.80;99.90;;;;;;5038019;28;20459;-83
2023/08/08 05:50:58;;;;;;;3.53;1.58;;;16.20;99.90;;;;;;5036471;28;20258;-82
2023/08/08 05:53:25;;;;;;;3.42;1.20;;;16.30;99.90;;;;;;5037081;28;20034;-82
2023/08/08 05:55:51;;;;;;;3.33;1.45;;;16.50;99.90;;;;;;5037345;28;20045;-83
2023/08/08 05:58:17;;;;;;;4.05;1.38;;;16.60;99.90;;;;;;5039168;28;20044;-83
2023/08/08 06:00:43;;;;;;;6.55;1.77;;;16.80;99.90;;;;;;5043657;28;20078;-83
2023/08/08 06:03:09;;;;;;;5.38;1.17;;;16.80;99.90;;;;;;5035405;28;20040;-83
2023/08/08 06:05:35;;;;;;;4.20;1.30;;;17.10;99.90;;;;;;5035961;28;20041;-82
2023/08/08 06:08:01;;;;;;;3.13;0.80;;;17.00;99.90;;;;;;5034604;28;20029;-82
2023/08/08 06:10:28;;;;;;;2.78;1.27;;;17.00;99.90;;;;;;5032099;28;20037;-83
2023/08/08 06:12:54;;;;;;;3.38;1.15;;;17.10;99.90;;;;;;5037539;28;20398;-83
2023/08/08 06:15:20;;;;;;;1.88;0.80;;;17.20;99.90;;;;;;5036700;28;20478;-82
2023/08/08 06:17:46;;;;;;;2.75;0.63;;;17.20;99.90;;;;;;5028144;28;20033;-82
2023/08/08 06:20:12;;;;;;;1.27;0.50;;;17.30;99.90;;;;;;5028509;28;20037;-81
2023/08/08 06:22:38;;;;;;;4.53;0.90;;;17.50;99.90;;;;;;5038853;28;20029;-80
2023/08/08 06:25:05;;;;;;;4.07;1.08;;;17.40;99.90;;;;;;5043764;28;20041;-84
2023/08/08 06:27:31;;;;;;;2.63;0.55;;;17.30;99.90;;;;;;5036341;28;20431;-82
2023/08/08 06:29:58;;;;;;;3.38;1.23;;;17.40;96.60;;;;;;5038248;28;20033;-83
2023/08/08 06:32:24;;;;;;;3.05;0.52;;;17.50;99.90;;;;;;5037611;28;20029;-83
2023/08/08 06:34:50;;;;;;;5.43;0.68;;;17.60;99.90;;;;;;5035987;28;20029;-82
2023/08/08 06:37:17;;;;;;;2.97;0.60;;;17.40;99.90;;;;;;5038807;28;20037;-84
2023/08/08 06:39:43;;;;;;;3.33;0.80;;;17.40;99.90;;;;;;5039309;28;20037;-88
2023/08/08 06:42:09;;;;;;;5.10;0.70;;;17.50;98.30;;;;;;5050295;28;20363;-89
2023/08/08 06:44:47;;;;;;;2.95;1.05;;;17.70;81.90;;;;;;5037681;28;20052;-91
2023/08/08 06:47:13;;;;;;;1.08;0.40;;;17.80;46.10;;;;;;5055336;28;20052;-90
2023/08/08 06:49:39;;;;;;;1.13;0.60;;;18.10;38.30;;;;;;5037017;28;20040;-81
2023/08/08 06:52:06;;;;;;;1.00;0.50;;;18.20;1.00;;;;;;5037781;28;20044;-88
2023/08/08 06:54:32;;;;;;;4.25;0.80;;;18.40;1.00;;;;;;5041121;28;20068;-87
2023/08/08 06:56:59;;;;;;;2.10;0.75;;;18.40;18.50;;;;;;5037834;28;20452;-87
2023/08/08 06:59:26;;;;;;;3.95;0.73;;;18.80;3.40;;;;;;5035211;28;20045;-85
2023/08/08 07:01:54;;;;;;;2.25;0.60;;;19.00;1.00;;;;;;5037884;28;20052;-88
2023/08/08 07:04:21;;;;;;;3.03;1.00;;;19.00;1.00;;;;;;5037897;28;20033;-88
2023/08/08 07:06:47;;;;;;;2.70;1.00;;;18.60;1.00;;;;;;5041057;28;20045;-86
2023/08/08 07:09:14;;;;;;;4.22;0.50;;;18.40;1.00;;;;;;5054826;28;20080;-85
2023/08/08 07:11:40;;;;;;;3.08;1.20;;;18.20;1.00;;;;;;5048084;28;20044;-82
2023/08/08 07:14:07;;;;;;;4.75;0.70;;;18.30;2.10;;;;;;5049022;28;20045;-88
2023/08/08 07:16:33;;;;;;;2.50;0.63;;;18.50;1.00;;;;;;5040528;28;20069;-87
2023/08/08 07:18:59;;;;;;;1.92;0.50;;;18.30;1.00;;;;;;5033865;28;20044;-86
2023/08/08 07:21:26;;;;;;;2.53;0.60;;;18.70;1.00;;;;;;5035298;28;20056;-88
2023/08/08 07:23:52;;;;;;;1.55;0.68;;;19.00;1.00;;;;;;5036658;28;20060;-88
2023/08/08 07:26:18;;;;;;;2.47;0.70;;;18.70;1.00;;;;;;5039899;28;20403;-89
2023/08/08 07:28:44;;;;;;;1.77;0.38;;;19.00;1.00;;;;;;5036522;28;20052;-91
2023/08/08 07:31:11;;;;;;;1.92;0.50;;;19.10;1.00;;;;;;5038751;28;20427;-87
2023/08/08 07:33:37;;;;;;;1.80;0.85;;;18.90;1.00;;;;;;5040646;28;20485;-88
2023/08/08 07:36:03;;;;;;;2.67;0.52;;;19.10;1.00;;;;;;5037481;28;20049;-86
2023/08/08 07:38:30;;;;;;;2.00;0.52;;;19.20;1.00;;;;;;5036800;28;20033;-89
2023/08/08 07:40:56;;;;;;;1.55;0.50;;;19.80;1.00;;;;;;5038610;28;20030;-89
2023/08/08 07:43:22;;;;;;;1.02;0.50;;;19.60;99.90;;;;;;5035222;28;20036;-85
2023/08/08 07:45:48;;;;;;;5.88;1.13;;;19.50;99.90;;;;;;5050988;28;20064;-89
2023/08/08 07:48:14;;;;;;;2.05;0.50;;;19.30;1.00;;;;;;5035876;28;20390;-90
2023/08/08 07:50:40;;;;;;;3.75;0.95;;;19.30;1.00;;;;;;5041254;28;20037;-86
2023/08/08 07:53:07;;;;;;;2.20;0.73;;;19.70;99.90;;;;;;5038051;28;20030;-89
2023/08/08 07:55:33;;;;;;;1.52;0.50;;;19.30;99.90;;;;;;5036381;28;20038;-89
2023/08/08 07:58:00;;;;;;;1.70;0.60;;;19.20;1.00;;;;;;5034085;28;20056;-86
2023/08/08 08:00:26;;;;;;;2.30;0.45;;;19.50;99.90;;;;;;5037345;28;20056;-87
2023/08/08 08:02:52;;;;;;;1.00;0.50;;;19.30;99.90;;;;;;5032490;28;20482;-87
2023/08/08 08:05:21;;;;;;;0.85;0.40;;;19.20;99.90;;;;;;5033969;28;20033;-90
2023/08/08 08:07:48;;;;;;;1.40;0.40;;;18.90;99.90;;;;;;5036866;28;20052;-88
2023/08/08 08:10:14;;;;;;;1.48;0.60;;;19.20;99.90;;;;;;5037741;28;20033;-88
2023/08/08 08:12:41;;;;;;;0.93;0.40;;;19.10;99.90;;;;;;5036058;28;20037;-87
2023/08/08 08:15:08;;;;;;;5.43;1.13;;;19.20;99.90;;;;;;5057477;28;20036;-87
2023/08/08 08:17:34;;;;;;;1.88;0.80;;;19.50;99.90;;;;;;5056299;28;20046;-84
2023/08/08 08:20:05;;;;;;;2.40;0.40;;;19.60;99.90;;;;;;5061426;28;20016;-87
2023/08/08 08:22:32;;;;;;;1.80;0.60;;;19.80;99.90;;;;;;5057875;28;20014;-89
2023/08/08 08:24:58;;;;;;;2.17;0.63;;;19.70;99.90;;;;;;5050811;28;20032;-87
2023/08/08 08:27:24;;;;;;;1.23;0.55;;;19.60;99.90;;;;;;5056192;28;20044;-84
2023/08/08 08:29:50;;;;;;;1.50;0.50;;;19.90;99.90;;;;;;5043450;28;20025;-89
2023/08/08 08:32:16;;;;;;;2.72;0.90;;;19.80;99.90;;;;;;5039538;28;20064;-86
2023/08/08 08:34:44;;;;;;;2.05;0.60;;;20.00;99.90;;;;;;5039635;28;20037;-87
2023/08/08 08:37:13;;;;;;;1.27;0.60;;;20.00;99.90;;;;;;5036255;28;20029;-85
2023/08/08 08:39:39;;;;;;;2.63;0.50;;;19.90;99.90;;;;;;5036730;28;20030;-88
2023/08/08 08:42:06;;;;;;;3.08;0.65;;;20.00;99.90;;;;;;5041497;28;20544;-86
2023/08/08 08:44:33;;;;;;;0.90;0.40;;;19.80;99.90;;;;;;5041957;28;20029;-86
2023/08/08 08:47:03;;;;;;;2.03;0.60;;;19.40;99.90;;;;;;5037656;28;20029;-87
2023/08/08 08:49:30;;;;;;;;;;;19.40;99.90;;;;;;5035938;28;20029;-87
2023/08/08 08:52:00;;;;;;;4.38;0.60;;;19.50;99.90;;;;;;5039181;28;19924;-88
2023/08/08 08:54:29;;;;;;;1.80;0.60;;;19.90;99.90;;;;;;5040852;28;20029;-85
2023/08/08 08:56:56;;;;;;;3.50;0.47;;;20.30;99.90;;;;;;5033167;28;20051;-88
2023/08/08 08:59:25;;;;;;;1.95;0.90;;;20.30;99.90;;;;;;5036790;28;20034;-88
2023/08/08 09:01:52;;;;;;;0.80;0.30;;;20.40;99.90;;;;;;5037208;28;20034;-87
2023/08/08 09:04:20;;;;;;;3.63;0.90;;;20.30;99.90;;;;;;5042498;28;20036;-82
2023/08/08 09:06:47;;;;;;;3.72;0.70;;;20.00;99.90;;;;;;5039820;28;20045;-87
2023/08/08 09:09:16;;;;;;;1.05;0.50;;;20.20;99.90;;;;;;5034985;28;20040;-89
2023/08/08 09:11:44;;;;;;;2.25;0.52;;;20.60;99.90;;;;;;5032825;28;20032;-91
2023/08/08 09:14:25;;;;;;;1.23;0.32;;;20.80;99.90;;;;;;5037544;28;20032;-90
2023/08/08 09:16:56;;;;;;;2.15;0.50;;;21.20;99.90;;;;;;5036999;28;20057;-85
2023/08/08 09:19:24;;;;;;;1.13;0.57;;;21.20;99.90;;;;;;5035790;28;20065;-84
2023/08/08 09:21:52;;;;;;;2.05;0.47;;;21.30;99.90;;;;;;5034819;28;20037;-85
2023/08/08 09:24:19;;;;;;;1.52;0.50;;;20.80;99.90;;;;;;5035608;28;20033;-87
2023/08/08 09:26:45;;;;;;;1.95;0.60;;;20.60;99.90;;;;;;5036668;28;20029;-87
2023/08/08 09:29:14;;;;;;;0.75;0.43;;;20.80;99.90;;;;;;5033763;28;20056;-87
2023/08/08 09:31:40;;;;;;;0.77;0.43;;;20.70;99.90;;;;;;5034788;28;20029;-89
2023/08/08 09:34:06;;;;;;;1.83;0.55;;;20.90;99.90;;;;;;5034443;28;20038;-90
2023/08/08 09:36:33;;;;;;;2.00;0.47;;;21.10;99.90;;;;;;5034545;28;20057;-87
2023/08/08 09:38:59;;;;;;;0.95;0.50;;;21.50;99.90;;;;;;5027073;28;20029;-86
2023/08/08 09:41:26;;;;;;;1.58;0.77;;;21.10;99.90;;;;;;5037529;28;20104;-89
2023/08/08 09:43:53;;;;;;;0.93;0.40;;;21.50;99.90;;;;;;5031591;28;20033;-90
2023/08/08 09:46:20;;;;;;;2.45;1.15;;;22.10;99.90;;;;;;5035613;28;20387;-87
2023/08/08 09:48:46;;;;;;;2.15;0.63;;;21.70;99.90;;;;;;5033435;28;20033;-86
2023/08/08 09:51:13;;;;;;;3.05;0.80;;;21.80;99.90;;;;;;5046255;28;20046;-82
2023/08/08 09:53:40;;;;;;;1.40;0.40;;;21.20;99.90;;;;;;5040074;28;20037;-85
2023/08/08 09:56:07;;;;;;;1.98;0.43;;;21.10;99.90;;;;;;5034572;28;20040;-87
2023/08/08 09:58:33;;;;;;;3.33;0.80;;;21.00;99.90;;;;;;5035516;28;20044;-88
2023/08/08 10:01:00;;;;;;;1.33;0.52;;;21.00;99.90;;;;;;5044666;28;20056;-88
2023/08/08 10:03:28;;;;;;;2.17;0.60;;;21.40;99.90;;;;;;5035660;28;20029;-84
2023/08/08 10:05:54;;;;;;;1.98;0.70;;;21.50;99.90;;;;;;5034241;28;20036;-86
2023/08/08 10:08:21;;;;;;;1.50;0.65;;;21.70;99.90;;;;;;5036126;28;20051;-87
2023/08/08 10:10:49;;;;;;;2.08;0.52;;;21.60;99.90;;;;;;5033338;28;20478;-89
2023/08/08 10:13:24;;;;;;;3.55;1.05;;;21.80;99.90;;;;;;5037180;28;20145;-86
2023/08/08 10:15:53;;;;;;;2.17;0.50;;;21.70;99.90;;;;;;5033953;28;20040;-85
2023/08/08 10:18:22;;;;;;;2.50;0.50;;;21.30;99.90;;;;;;5030986;28;20042;-85
2023/08/08 10:20:49;;;;;;;3.20;0.85;;;21.10;99.90;;;;;;5030089;28;20036;-85
2023/08/08 10:23:18;;;;;;;1.98;0.70;;;21.00;99.90;;;;;;5034873;28;20025;-85
2023/08/08 10:25:49;;;;;;;1.48;0.82;;;21.40;99.90;;;;;;5038682;28;20044;-86
2023/08/08 10:28:21;;;;;;;1.23;0.55;;;21.90;99.90;;;;;;5032132;28;20046;-86
2023/08/08 10:30:58;;;;;;;2.63;0.80;;;22.20;99.90;;;;;;5035370;28;20037;-86
2023/08/08 10:33:43;;;;;;;2.85;0.93;;;22.20;99.90;;;;;;5038656;28;20057;-88
2023/08/08 10:36:10;;;;;;;2.95;1.13;;;21.90;99.90;;;;;;5031572;28;20030;-86
2023/08/08 10:38:46;;;;;;;1.33;0.70;;;21.80;99.90;;;;;;5038982;28;20044;-83
2023/08/08 10:41:14;;;;;;;0.75;0.40;;;21.40;99.90;;;;;;5054964;28;20041;-86
2023/08/08 10:43:50;;;;;;;2.67;0.68;;;21.40;99.90;;;;;;5036961;28;20042;-86
2023/08/08 10:46:27;;;;;;;2.03;0.50;;;21.70;99.90;;;;;;5049410;28;20028;-87
2023/08/08 10:48:56;;;;;;;1.42;0.50;;;22.00;99.90;;;;;;5038121;28;20030;-86
2023/08/08 10:51:22;;;;;;;2.70;0.50;;;22.30;99.90;;;;;;5038073;28;20045;-86
2023/08/08 10:53:55;;;;;;;2.78;0.95;;;22.20;99.90;;;;;;5038252;28;20052;-83
2023/08/08 10:56:23;;;;;;;1.77;0.47;;;22.00;99.90;;;;;;5050379;28;20044;-88
2023/08/08 10:58:49;;;;;;;1.00;0.40;;;22.10;99.90;;;;;;5035734;28;20052;-86
2023/08/08 11:01:16;;;;;;;2.58;0.50;;;22.20;99.90;;;;;;5032625;28;20041;-86
2023/08/08 11:03:46;;;;;;;1.13;0.50;;;22.00;99.90;;;;;;5032979;28;20045;-87
2023/08/08 11:06:12;;;;;;;2.23;0.60;;;21.80;99.90;;;;;;5032827;28;20637;-85
2023/08/08 11:08:38;;;;;;;1.40;0.60;;;21.90;99.90;;;;;;5037110;28;20040;-86
2023/08/08 11:11:06;;;;;;;2.95;0.60;;;22.00;99.90;;;;;;5056234;28;20037;-84
2023/08/08 11:13:32;;;;;;;1.85;0.80;;;22.10;99.90;;;;;;5040235;28;20032;-85
2023/08/08 11:16:01;;;;;;;4.88;0.82;;;22.00;99.90;;;;;;5035342;28;20033;-84
2023/08/08 11:18:28;;;;;;;1.17;0.57;;;21.90;99.90;;;;;;5039949;28;20041;-84
2023/08/08 11:20:54;;;;;;;2.22;0.50;;;22.10;99.90;;;;;;5034985;28;20040;-87
2023/08/08 11:23:20;;;;;;;1.23;0.55;;;22.10;99.90;;;;;;5036045;28;20032;-85
2023/08/08 11:25:47;;;;;;;1.85;0.88;;;22.20;99.90;;;;;;5036300;28;20501;-86
2023/08/08 11:28:14;;;;;;;2.63;0.80;;;22.20;99.90;;;;;;5036244;28;20410;-86
2023/08/08 11:30:43;;;;;;;1.27;0.55;;;22.20;99.90;;;;;;5038497;28;20041;-86
2023/08/08 11:33:12;;;;;;;1.55;0.70;;;22.60;99.90;;;;;;5031298;28;20363;-85
2023/08/08 11:35:45;;;;;;;4.88;0.60;;;22.30;99.90;;;;;;5037675;28;20040;-85
2023/08/08 11:38:13;;;;;;;1.77;0.50;;;22.50;99.90;;;;;;5043984;28;20042;-84
2023/08/08 11:40:40;;;;;;;2.53;0.50;;;22.60;99.90;;;;;;5040974;28;20032;-86
2023/08/08 11:43:07;;;;;;;1.67;0.85;;;22.70;99.90;;;;;;5037261;28;20058;-84
2023/08/08 11:45:34;;;;;;;2.13;0.70;;;22.60;99.90;;;;;;5036656;28;20033;-86
2023/08/08 11:48:01;;;;;;;2.83;0.93;;;22.60;99.90;;;;;;5039006;28;20417;-82
2023/08/08 11:50:28;;;;;;;1.40;0.68;;;22.50;99.90;;;;;;5047457;28;20036;-85
2023/08/08 11:52:55;;;;;;;0.98;0.55;;;22.20;99.90;;;;;;5046141;28;20026;-86
2023/08/08 11:55:27;;;;;;;1.73;0.60;;;22.40;99.90;;;;;;5054828;28;20034;-86
2023/08/08 11:57:56;;;;;;;5.13;1.05;;;22.60;99.90;;;;;;5041802;28;20156;-85
2023/08/08 12:00:32;;;;;;;2.08;0.57;;;22.60;99.90;;;;;;5043698;28;20139;-85
2023/08/08 12:03:01;;;;;;;2.47;0.50;;;22.30;99.90;;;;;;5052848;28;20025;-86
2023/08/08 12:05:28;;;;;;;2.05;0.60;;;22.00;99.90;;;;;;5062615;28;20044;-85
2023/08/08 12:07:54;;;;;;;1.20;0.75;;;22.40;99.90;;;;;;5037495;28;20037;-85
2023/08/08 12:10:22;;;;;;;1.63;0.50;;;22.40;99.90;;;;;;5038724;28;20040;-84
2023/08/08 12:12:59;;;;;;;2.58;0.68;;;22.40;99.90;;;;;;5038250;28;20029;-87
2023/08/08 12:15:30;;;;;;;2.05;0.82;;;22.60;99.90;;;;;;5034642;28;20033;-84
2023/08/08 12:17:59;;;;;;;2.45;0.60;;;22.60;99.90;;;;;;5031615;28;20037;-86
2023/08/08 12:20:29;;;;;;;2.67;0.75;;;22.60;99.90;;;;;;5035940;28;20359;-86
2023/08/08 12:22:55;;;;;;;3.45;0.60;;;22.60;99.90;;;;;;5039841;28;20049;-87
2023/08/08 12:25:22;;;;;;;1.02;0.45;;;22.80;99.90;;;;;;5039243;28;20378;-87
2023/08/08 12:27:49;;;;;;;2.67;0.60;;;23.10;99.90;;;;;;5047320;28;20037;-86
2023/08/08 12:30:15;;;;;;;2.65;1.02;;;23.00;99.90;;;;;;5046987;28;20446;-86
2023/08/08 12:32:41;;;;;;;1.50;0.40;;;22.70;99.90;;;;;;5042482;28;20037;-86
2023/08/08 12:35:08;;;;;;;2.13;0.75;;;22.50;99.90;;;;;;5041527;28;20052;-85
2023/08/08 12:37:34;;;;;;;1.10;0.50;;;22.80;99.90;;;;;;5035674;28;20042;-85
2023/08/08 12:40:02;;;;;;;2.30;0.50;;;22.80;99.90;;;;;;5039044;28;20021;-85
2023/08/08 12:42:28;;;;;;;0.75;0.40;;;22.80;99.90;;;;;;5036601;28;20061;-87
2023/08/08 12:44:57;;;;;;;1.45;0.50;;;22.80;99.90;;;;;;5035343;28;20029;-84
2023/08/08 12:47:24;;;;;;;1.33;0.40;;;22.60;99.90;;;;;;5032717;28;20454;-86
2023/08/08 12:49:50;;;;;;;1.85;0.43;;;22.70;99.90;;;;;;5038535;28;20044;-86